Time;durP1;ratioP1;P1;durP2;ratioP2;P2;SDS_P1;SDS_P2;PMS_P1;PMS_P2;Temp;Humidity;BMP_temperature;BMP_pressure;BME280_temperature;BME280_humidity;BME280_pressure;Samples;Min_cycle;Max_cycle;Signal;HPM_P1;HPM_P2
2022/11/14 00:00:30;;;;;;;;;;;5.90;99.90;;;;;;5052189;28;19913;-79
2022/11/14 00:02:58;;;;;;;;;;;5.90;99.90;;;;;;5052138;28;19916;-79
2022/11/14 00:05:23;;;;;;;;;;;5.90;99.90;;;;;;5052062;28;19913;-78
2022/11/14 00:07:49;;;;;;;;;;;5.80;99.90;;;;;;5051278;28;19909;-81
2022/11/14 00:10:14;;;;;;;;;;;5.80;99.90;;;;;;5052098;28;19948;-79
2022/11/14 00:12:40;;;;;;;;;;;5.80;99.90;;;;;;5050717;28;19909;-79
2022/11/14 00:15:06;;;;;;;;;;;5.70;99.90;;;;;;5050417;28;19909;-81
2022/11/14 00:17:32;;;;;;;;;;;5.70;99.90;;;;;;5051823;28;20326;-79
2022/11/14 00:19:57;;;;;;;;;;;5.70;99.90;;;;;;5051929;28;19915;-80
2022/11/14 00:22:23;;;;;;;;;;;5.70;99.90;;;;;;5052045;28;19909;-79
2022/11/14 00:24:48;;;;;;;;;;;5.60;99.90;;;;;;5050454;28;19915;-79
2022/11/14 00:27:14;;;;;;;;;;;5.60;99.90;;;;;;5051736;28;19909;-80
2022/11/14 00:29:39;;;;;;;;;;;5.60;99.90;;;;;;5052343;28;20266;-80
2022/11/14 00:32:05;;;;;;;;;;;5.60;99.90;;;;;;5051875;28;20279;-79
2022/11/14 00:34:30;;;;;;;;;;;5.60;99.90;;;;;;5051837;28;19913;-79
2022/11/14 00:36:56;;;;;;;;;;;5.60;99.90;;;;;;5052215;28;19909;-80
2022/11/14 00:39:21;;;;;;;;;;;5.60;99.90;;;;;;5054610;28;19932;-79
2022/11/14 00:41:47;;;;;;;;;;;5.60;99.90;;;;;;5055478;28;19917;-79
2022/11/14 00:44:12;;;;;;;;;;;5.60;99.90;;;;;;5054971;28;19948;-79
2022/11/14 00:46:38;;;;;;;;;;;5.60;99.90;;;;;;5055349;28;20306;-81
2022/11/14 00:49:03;;;;;;;;;;;5.60;99.90;;;;;;5054412;28;19908;-80
2022/11/14 00:51:29;;;;;;;;;;;5.60;99.90;;;;;;5055776;28;19916;-79
2022/11/14 00:53:54;;;;;;;;;;;5.60;99.90;;;;;;5055098;28;19916;-80
2022/11/14 00:56:19;;;;;;;;;;;5.70;99.90;;;;;;5055554;28;19909;-79
2022/11/14 00:58:45;;;;;;;;;;;5.60;99.90;;;;;;5055334;28;19909;-79
2022/11/14 01:01:10;;;;;;;;;;;5.60;99.90;;;;;;5054068;28;19913;-80
2022/11/14 01:03:36;;;;;;;;;;;5.60;99.90;;;;;;5055111;28;20128;-80
2022/11/14 01:06:06;;;;;;;;;;;5.60;99.90;;;;;;5055249;28;20007;-80
2022/11/14 01:08:31;;;;;;;;;;;5.60;99.90;;;;;;5053462;28;20271;-79
2022/11/14 01:10:57;;;;;;;;;;;5.50;99.90;;;;;;5055310;28;19966;-80
2022/11/14 01:13:23;;;;;;;;;;;5.50;99.90;;;;;;5054735;28;20408;-81
2022/11/14 01:15:49;;;;;;;;;;;5.50;99.90;;;;;;5054932;28;20004;-79
2022/11/14 01:18:16;;;;;;;;;;;5.40;99.90;;;;;;5054947;28;19909;-79
2022/11/14 01:20:42;;;;;;;;;;;5.40;99.90;;;;;;5054734;28;20424;-78
2022/11/14 01:23:08;;;;;;;;;;;5.40;99.90;;;;;;5054530;28;19960;-79
2022/11/14 01:25:35;;;;;;;;;;;5.40;99.90;;;;;;5054672;28;20350;-79
2022/11/14 01:28:00;;;;;;;;;;;5.40;99.90;;;;;;5054636;28;20004;-79
2022/11/14 01:30:26;;;;;;;;;;;5.30;99.90;;;;;;5054703;28;19948;-79
2022/11/14 01:32:51;;;;;;;;;;;5.30;99.90;;;;;;5054263;28;19924;-80
2022/11/14 01:35:17;;;;;;;;;;;5.30;99.90;;;;;;5054627;28;19922;-79
2022/11/14 01:37:42;;;;;;;;;;;5.30;99.90;;;;;;5054709;28;19995;-81
2022/11/14 01:40:08;;;;;;;;;;;5.20;99.90;;;;;;5054747;28;20358;-80
2022/11/14 01:42:33;;;;;;;;;;;5.20;99.90;;;;;;5054439;28;19908;-79
2022/11/14 01:44:59;;;;;;;;;;;5.20;99.90;;;;;;5053959;28;19963;-79
2022/11/14 01:47:26;;;;;;;;;;;5.20;99.90;;;;;;5054212;28;19915;-79
2022/11/14 01:49:57;;;;;;;;;;;5.20;99.90;;;;;;5051847;28;19951;-79
2022/11/14 01:52:44;;;;;;;;;;;5.20;99.90;;;;;;5053286;28;19909;-79
2022/11/14 01:55:10;;;;;;;;;;;5.20;99.90;;;;;;5053952;28;19915;-80
2022/11/14 01:57:37;;;;;;;;;;;5.20;99.90;;;;;;5052971;28;20368;-79
2022/11/14 02:00:05;;;;;;;;;;;5.20;99.90;;;;;;5054132;28;19909;-79
2022/11/14 02:02:31;;;;;;;;;;;5.10;99.90;;;;;;5054013;28;19909;-80
2022/11/14 02:05:01;;;;;;;;;;;5.10;99.90;;;;;;5054070;28;19935;-80
2022/11/14 02:07:28;;;;;;;;;;;5.10;99.90;;;;;;5053100;28;19912;-79
2022/11/14 02:09:54;;;;;;;;;;;5.00;99.90;;;;;;5054057;28;19908;-79
2022/11/14 02:12:20;;;;;;;;;;;5.00;99.90;;;;;;5054165;28;19915;-80
2022/11/14 02:14:47;;;;;;;;;;;5.00;99.90;;;;;;5053568;28;19909;-79
2022/11/14 02:17:14;;;;;;;;;;;5.00;99.90;;;;;;5052744;28;20267;-80
2022/11/14 02:19:43;;;;;;;;;;;5.00;99.90;;;;;;5053974;28;19982;-79
2022/11/14 02:22:08;;;;;;;;;;;4.90;99.90;;;;;;5053706;28;20043;-81
2022/11/14 02:24:34;;;;;;;;;;;5.00;99.90;;;;;;5052365;28;19947;-80
2022/11/14 02:27:00;;;;;;;;;;;5.00;99.90;;;;;;5054000;28;19939;-79
2022/11/14 02:29:25;;;;;;;;;;;5.00;99.90;;;;;;5053562;28;20324;-79
2022/11/14 02:31:51;;;;;;;;;;;5.00;99.90;;;;;;5053539;28;19958;-80
2022/11/14 02:34:19;;;;;;;;;;;5.00;99.90;;;;;;5051905;28;20402;-79
2022/11/14 02:36:44;;;;;;;;;;;5.00;99.90;;;;;;5053236;28;19978;-80
2022/11/14 02:39:10;;;;;;;;;;;4.90;99.90;;;;;;5053409;28;19913;-79
2022/11/14 02:41:35;;;;;;;;;;;4.90;99.90;;;;;;5053202;28;19919;-80
2022/11/14 02:44:01;;;;;;;;;;;4.90;99.90;;;;;;5052993;28;19961;-81
2022/11/14 02:46:26;;;;;;;;;;;4.80;99.90;;;;;;5053344;28;19919;-79
2022/11/14 02:48:52;;;;;;;;;;;4.80;99.90;;;;;;5053212;28;19909;-80
2022/11/14 02:51:17;;;;;;;;;;;4.80;99.90;;;;;;5053102;28;20615;-80
2022/11/14 02:53:42;;;;;;;;;;;4.80;99.90;;;;;;5052817;28;19961;-79
2022/11/14 02:56:08;;;;;;;;;;;4.80;99.90;;;;;;5051827;28;19908;-79
2022/11/14 02:58:33;;;;;;;;;;;4.80;99.90;;;;;;5053205;28;20378;-79
2022/11/14 03:00:59;;;;;;;;;;;4.80;99.90;;;;;;5052916;28;19964;-79
2022/11/14 03:03:24;;;;;;;;;;;4.80;99.90;;;;;;5052604;28;19909;-79
2022/11/14 03:05:52;;;;;;;;;;;4.70;99.90;;;;;;5053079;28;19909;-80
2022/11/14 03:08:18;;;;;;;;;;;4.70;99.90;;;;;;5051150;28;19909;-80
2022/11/14 03:10:44;;;;;;;;;;;4.70;99.90;;;;;;5052903;28;19909;-80
2022/11/14 03:13:10;;;;;;;;;;;4.70;99.90;;;;;;5052235;28;19908;-79
2022/11/14 03:15:36;;;;;;;;;;;4.70;99.90;;;;;;5052891;28;19954;-81
2022/11/14 03:18:01;;;;;;;;;;;4.70;99.90;;;;;;5052720;28;20381;-79
2022/11/14 03:20:27;;;;;;;;;;;4.60;99.90;;;;;;5052721;28;19913;-78
2022/11/14 03:22:52;;;;;;;;;;;4.60;99.90;;;;;;5052360;28;19916;-80
2022/11/14 03:25:18;;;;;;;;;;;4.60;99.90;;;;;;5052626;28;19909;-79
2022/11/14 03:27:43;;;;;;;;;;;4.70;99.90;;;;;;5051173;28;19908;-79
2022/11/14 03:30:09;;;;;;;;;;;4.70;99.90;;;;;;5052177;28;20358;-79
2022/11/14 03:32:34;;;;;;;;;;;4.70;99.90;;;;;;5052617;28;20408;-80
2022/11/14 03:35:00;;;;;;;;;;;4.70;99.90;;;;;;5052357;28;19916;-80
2022/11/14 03:37:26;;;;;;;;;;;4.70;99.90;;;;;;5051317;28;19909;-79
2022/11/14 03:39:51;;;;;;;;;;;4.70;99.90;;;;;;5052803;28;20385;-79
2022/11/14 03:42:16;;;;;;;;;;;4.70;99.90;;;;;;5051056;28;19917;-79
2022/11/14 03:44:42;;;;;;;;;;;4.70;99.90;;;;;;5051223;28;19909;-80
2022/11/14 03:47:07;;;;;;;;;;;4.70;99.90;;;;;;5051035;28;19916;-79
2022/11/14 03:49:33;;;;;;;;;;;4.70;99.90;;;;;;5051104;28;20425;-80
2022/11/14 03:51:58;;;;;;;;;;;4.70;99.90;;;;;;5052286;28;19909;-79
2022/11/14 03:54:24;;;;;;;;;;;4.70;99.90;;;;;;5052216;28;19954;-78
2022/11/14 03:56:49;;;;;;;;;;;4.70;99.90;;;;;;5052336;28;19995;-81
2022/11/14 03:59:14;;;;;;;;;;;4.70;99.90;;;;;;5052469;28;20278;-80
2022/11/14 04:01:40;;;;;;;;;;;4.70;99.90;;;;;;5052411;28;20017;-79
2022/11/14 04:04:05;;;;;;;;;;;4.70;99.90;;;;;;5050759;28;20369;-80
2022/11/14 04:06:31;;;;;;;;;;;4.70;99.90;;;;;;5052449;28;19931;-80
2022/11/14 04:08:56;;;;;;;;;;;4.70;99.90;;;;;;5051992;28;20424;-80
2022/11/14 04:11:22;;;;;;;;;;;4.70;99.90;;;;;;5052283;28;19913;-80
2022/11/14 04:13:47;;;;;;;;;;;4.80;99.90;;;;;;5052169;28;19909;-79
2022/11/14 04:16:13;;;;;;;;;;;4.70;99.90;;;;;;5054755;28;20369;-77
2022/11/14 04:18:38;;;;;;;;;;;4.70;99.90;;;;;;5054701;28;20568;-76
2022/11/14 04:21:04;;;;;;;;;;;4.70;99.90;;;;;;5056061;28;19912;-79
2022/11/14 04:23:29;;;;;;;;;;;4.60;99.90;;;;;;5054486;28;19962;-79
2022/11/14 04:25:55;;;;;;;;;;;4.60;99.90;;;;;;5055471;28;19912;-78
2022/11/14 04:28:20;;;;;;;;;;;4.60;99.90;;;;;;5055627;28;19963;-78
2022/11/14 04:30:46;;;;;;;;;;;4.60;99.90;;;;;;5055736;28;19919;-79
2022/11/14 04:33:11;;;;;;;;;;;4.60;99.90;;;;;;5055227;28;19917;-78
2022/11/14 04:35:37;;;;;;;;;;;4.60;99.90;;;;;;5055746;28;19909;-77
2022/11/14 04:38:02;;;;;;;;;;;4.60;99.90;;;;;;5055681;28;20371;-79
2022/11/14 04:40:28;;;;;;;;;;;4.60;99.90;;;;;;5055515;28;19913;-78
2022/11/14 04:42:53;;;;;;;;;;;4.70;99.90;;;;;;5055284;28;19995;-77
2022/11/14 04:45:19;;;;;;;;;;;4.70;99.90;;;;;;5056050;28;20572;-78
2022/11/14 04:47:44;;;;;;;;;;;4.70;99.90;;;;;;5055690;28;19916;-79
2022/11/14 04:50:10;;;;;;;;;;;4.70;99.90;;;;;;5055858;28;19909;-79
2022/11/14 04:52:35;;;;;;;;;;;4.70;99.90;;;;;;5055374;28;19962;-78
2022/11/14 04:55:01;;;;;;;;;;;4.70;99.90;;;;;;5055097;28;19909;-78
2022/11/14 04:57:26;;;;;;;;;;;4.80;99.90;;;;;;5055530;28;19913;-78
2022/11/14 04:59:52;;;;;;;;;;;4.70;99.90;;;;;;5055395;28;19909;-78
2022/11/14 05:02:17;;;;;;;;;;;4.70;99.90;;;;;;5055303;28;19959;-79
2022/11/14 05:04:44;;;;;;;;;;;4.70;99.90;;;;;;5055096;28;19978;-79
2022/11/14 05:07:10;;;;;;;;;;;4.60;99.90;;;;;;5055040;28;19908;-79
2022/11/14 05:09:35;;;;;;;;;;;4.60;99.90;;;;;;5055153;28;19996;-82
2022/11/14 05:12:01;;;;;;;;;;;4.60;99.90;;;;;;5053793;28;19920;-78
2022/11/14 05:14:27;;;;;;;;;;;4.60;99.90;;;;;;5053532;28;19914;-78
2022/11/14 05:16:52;;;;;;;;;;;4.50;99.90;;;;;;5055326;28;20381;-77
2022/11/14 05:19:18;;;;;;;;;;;4.50;99.90;;;;;;5055172;28;19944;-79
2022/11/14 05:21:43;;;;;;;;;;;4.60;99.90;;;;;;5054925;28;19920;-77
2022/11/14 05:24:09;;;;;;;;;;;4.50;99.90;;;;;;5054278;28;20114;-79
2022/11/14 05:26:34;;;;;;;;;;;4.60;99.90;;;;;;5055351;28;19915;-79
2022/11/14 05:29:00;;;;;;;;;;;4.60;99.90;;;;;;5055186;28;19909;-79
2022/11/14 05:31:25;;;;;;;;;;;4.60;99.90;;;;;;5055401;28;19909;-78
2022/11/14 05:33:51;;;;;;;;;;;4.70;99.90;;;;;;5072065;22;19925;-79
2022/11/14 05:36:16;;;;;;;;;;;4.70;99.90;;;;;;5056768;28;19910;-79
2022/11/14 05:38:42;;;;;;;;;;;4.70;99.90;;;;;;5058397;28;20457;-78
2022/11/14 05:41:08;;;;;;;;;;;4.70;99.90;;;;;;5055622;28;19912;-78
2022/11/14 05:43:34;;;;;;;;;;;4.70;99.90;;;;;;5055884;28;20281;-78
2022/11/14 05:46:00;;;;;;;;;;;4.70;99.90;;;;;;5055490;28;19930;-78
2022/11/14 05:48:25;;;;;;;;;;;4.70;99.90;;;;;;5056857;28;19920;-78
2022/11/14 05:50:55;;;;;;;;;;;4.70;99.90;;;;;;5056967;28;19908;-79
2022/11/14 05:53:20;;;;;;;;;;;4.80;99.90;;;;;;5056459;28;20305;-79
2022/11/14 05:55:46;;;;;;;;;;;4.80;99.90;;;;;;5058912;28;19908;-78
2022/11/14 05:58:11;;;;;;;;;;;4.80;99.90;;;;;;5060130;28;20003;-79
2022/11/14 06:00:37;;;;;;;;;;;4.80;99.90;;;;;;5061506;28;19916;-80
2022/11/14 06:03:02;;;;;;;;;;;4.80;99.90;;;;;;5061199;28;20425;-80
2022/11/14 06:05:28;;;;;;;;;;;4.80;99.90;;;;;;5061260;28;19951;-79
2022/11/14 06:07:54;;;;;;;;;;;4.80;99.90;;;;;;5057942;28;19931;-79
2022/11/14 06:10:19;;;;;;;;;;;4.80;99.90;;;;;;5055138;28;19920;-79
2022/11/14 06:12:46;;;;;;;;;;;4.80;99.90;;;;;;5055969;28;19909;-79
2022/11/14 06:15:11;;;;;;;;;;;4.70;99.90;;;;;;5055593;28;19913;-78
2022/11/14 06:17:36;;;;;;;;;;;4.70;99.90;;;;;;5055222;28;19909;-79
2022/11/14 06:20:02;;;;;;;;;;;4.80;99.90;;;;;;5055005;28;20008;-79
2022/11/14 06:22:27;;;;;;;;;;;4.90;99.90;;;;;;5056571;28;20325;-78
2022/11/14 06:24:53;;;;;;;;;;;5.00;99.90;;;;;;5053968;28;20337;-78
2022/11/14 06:27:18;;;;;;;;;;;5.10;99.90;;;;;;5055226;28;19967;-78
2022/11/14 06:29:44;;;;;;;;;;;5.30;99.90;;;;;;5054613;28;19958;-78
2022/11/14 06:32:09;;;;;;;;;;;5.50;99.90;;;;;;5055949;28;20008;-81
2022/11/14 06:34:35;;;;;;;;;;;5.60;99.90;;;;;;5056045;28;20377;-78
2022/11/14 06:37:00;;;;;;;;;;;5.70;99.90;;;;;;5054016;28;19980;-78
2022/11/14 06:39:26;;;;;;;;;;;5.90;99.90;;;;;;5055457;28;19916;-80
2022/11/14 06:41:51;;;;;;;;;;;6.00;99.90;;;;;;5055104;28;19948;-81
2022/11/14 06:44:16;;;;;;;;;;;6.10;99.90;;;;;;5055107;28;19909;-81
2022/11/14 06:46:42;;;;;;;;;;;6.10;99.90;;;;;;5056178;28;19912;-81
2022/11/14 06:49:07;;;;;;;;;;;6.20;99.90;;;;;;5057508;28;19916;-80
2022/11/14 06:51:33;;;;;;;;;;;6.20;99.90;;;;;;5054696;28;19937;-81
2022/11/14 06:53:59;;;;;;;;;;;6.30;99.90;;;;;;5056855;28;20275;-81
2022/11/14 06:56:24;;;;;;;;;;;6.30;99.90;;;;;;5055111;28;19909;-81
2022/11/14 06:58:50;;;;;;;;;;;6.20;99.90;;;;;;5054818;28;19959;-80
2022/11/14 07:01:16;;;;;;;;;;;6.30;99.90;;;;;;5056410;28;20389;-80
2022/11/14 07:03:42;;;;;;;;;;;6.20;99.90;;;;;;5056918;28;19908;-80
2022/11/14 07:06:09;;;;;;;;;;;6.30;99.90;;;;;;5054933;28;20067;-80
2022/11/14 07:08:34;;;;;;;;;;;6.30;99.90;;;;;;5056871;28;19966;-81
2022/11/14 07:11:04;;;;;;;;;;;6.30;99.90;;;;;;5055933;28;19931;-80
2022/11/14 07:13:30;;;;;;;;;;;6.30;99.90;;;;;;5056084;28;19996;-81
2022/11/14 07:15:55;;;;;;;;;;;6.30;99.90;;;;;;5056601;28;19940;-81
2022/11/14 07:18:21;;;;;;;;;;;6.40;99.90;;;;;;5055507;28;20376;-80
2022/11/14 07:20:46;;;;;;;;;;;6.40;99.90;;;;;;5055592;28;19912;-80
2022/11/14 07:23:12;;;;;;;;;;;6.50;99.90;;;;;;5055692;28;19908;-81
2022/11/14 07:25:38;;;;;;;;;;;6.70;99.90;;;;;;5055524;28;19909;-80
2022/11/14 07:28:03;;;;;;;;;;;6.80;99.90;;;;;;5055107;28;20000;-80
2022/11/14 07:30:29;;;;;;;;;;;7.00;99.90;;;;;;5055614;28;20370;-81
2022/11/14 07:32:57;;;;;;;;;;;7.10;99.90;;;;;;5055098;28;19916;-81
2022/11/14 07:35:23;;;;;;;;;;;7.30;99.90;;;;;;5056240;28;19909;-80
2022/11/14 07:37:49;;;;;;;;;;;7.40;99.90;;;;;;5056611;28;19917;-80
2022/11/14 07:40:15;;;;;;;;;;;7.50;99.90;;;;;;5055531;28;19935;-80
2022/11/14 07:42:40;;;;;;;;;;;7.60;99.90;;;;;;5055203;28;19954;-80
2022/11/14 07:45:06;;;;;;;;;;;7.70;99.90;;;;;;5056289;28;19908;-80
2022/11/14 07:47:32;;;;;;;;;;;7.80;99.90;;;;;;5057067;28;19944;-81
2022/11/14 07:49:57;;;;;;;;;;;7.80;99.90;;;;;;5058987;28;19909;-81
2022/11/14 07:52:23;;;;;;;;;;;7.90;99.90;;;;;;5060821;28;20027;-80
2022/11/14 07:54:48;;;;;;;;;;;8.00;99.90;;;;;;5058961;28;19913;-78
2022/11/14 07:57:13;;;;;;;;;;;8.10;99.90;;;;;;5058576;28;19966;-81
2022/11/14 07:59:39;;;;;;;;;;;8.20;99.90;;;;;;5059063;28;19909;-80
2022/11/14 08:02:05;;;;;;;;;;;8.20;99.90;;;;;;5058362;28;19913;-81
2022/11/14 08:04:30;;;;;;;;;;;8.20;99.90;;;;;;5058387;28;20008;-80
2022/11/14 08:06:56;;;;;;;;;;;8.30;99.90;;;;;;5059626;28;19960;-80
2022/11/14 08:09:22;;;;;;;;;;;8.30;99.90;;;;;;5060669;28;20289;-79
2022/11/14 08:11:47;;;;;;;;;;;8.30;99.90;;;;;;5058182;28;19959;-79
2022/11/14 08:14:13;;;;;;;;;;;8.40;99.90;;;;;;5058831;28;19912;-80
2022/11/14 08:16:39;;;;;;;;;;;8.40;99.90;;;;;;5052172;28;19920;-79
2022/11/14 08:19:04;;;;;;;;;;;8.40;99.90;;;;;;5058291;28;19909;-79
2022/11/14 08:21:30;;;;;;;;;;;8.40;99.90;;;;;;5057268;28;19913;-79
2022/11/14 08:23:55;;;;;;;;;;;8.30;99.90;;;;;;5057486;28;20377;-78
2022/11/14 08:26:21;;;;;;;;;;;8.40;99.90;;;;;;5058351;28;19909;-79
2022/11/14 08:28:46;;;;;;;;;;;8.40;99.90;;;;;;5058371;28;20578;-78
2022/11/14 08:31:12;;;;;;;;;;;8.40;99.90;;;;;;5058961;28;19987;-79
2022/11/14 08:33:38;;;;;;;;;;;8.40;99.90;;;;;;5058774;28;19931;-79
2022/11/14 08:36:04;;;;;;;;;;;8.40;99.90;;;;;;5057748;28;19909;-79
2022/11/14 08:38:30;;;;;;;;;;;8.30;99.90;;;;;;5059136;28;19915;-80
2022/11/14 08:40:59;;;;;;;;;;;8.40;99.90;;;;;;5058274;28;19912;-79
2022/11/14 08:43:25;;;;;;;;;;;8.40;99.90;;;;;;5058029;28;19909;-79
2022/11/14 08:45:51;;;;;;;;;;;8.30;99.90;;;;;;5058170;28;19931;-80
2022/11/14 08:48:16;;;;;;;;;;;8.30;99.90;;;;;;5057596;28;19909;-79
2022/11/14 08:50:42;;;;;;;;;;;8.30;99.90;;;;;;5058597;28;20003;-78
2022/11/14 08:53:07;;;;;;;;;;;8.30;99.90;;;;;;5057932;28;19909;-78
2022/11/14 08:55:33;;;;;;;;;;;8.40;99.90;;;;;;5058093;28;19909;-78
2022/11/14 08:57:58;;;;;;;;;;;8.50;99.90;;;;;;5057437;28;19937;-78
2022/11/14 09:00:24;;;;;;;;;;;8.50;99.90;;;;;;5058022;28;19962;-79
2022/11/14 09:02:49;;;;;;;;;;;8.50;99.90;;;;;;5057777;28;19996;-78
2022/11/14 09:05:15;;;;;;;;;;;8.50;99.90;;;;;;5058518;28;19909;-78
2022/11/14 09:07:40;;;;;;;;;;;8.50;99.90;;;;;;5057392;28;20366;-78
2022/11/14 09:10:07;;;;;;;;;;;8.60;99.90;;;;;;5043956;28;19932;-77
2022/11/14 09:12:33;;;;;;;;;;;8.60;99.90;;;;;;5036842;28;19910;-78
2022/11/14 09:14:58;;;;;;;;;;;8.60;99.90;;;;;;5038883;28;19920;-79
2022/11/14 09:17:24;;;;;;;;;;;8.60;99.90;;;;;;5049756;28;19909;-79
2022/11/14 09:19:49;;;;;;;;;;;8.60;99.90;;;;;;5038183;28;19909;-79
2022/11/14 09:22:15;;;;;;;;;;;8.60;99.90;;;;;;5038148;28;20330;-78
2022/11/14 09:24:40;;;;;;;;;;;8.70;99.90;;;;;;5038511;28;19976;-79
2022/11/14 09:27:06;;;;;;;;;;;8.70;99.90;;;;;;5038412;28;19913;-79
2022/11/14 09:29:32;;;;;;;;;;;8.70;99.90;;;;;;5038353;28;20355;-79
2022/11/14 09:31:58;;;;;;;;;;;8.70;99.90;;;;;;5036334;28;19909;-79
2022/11/14 09:34:23;;;;;;;;;;;8.80;99.90;;;;;;5038031;28;19917;-79
2022/11/14 09:36:49;;;;;;;;;;;8.80;99.90;;;;;;5036841;28;19913;-78
2022/11/14 09:39:15;;;;;;;;;;;8.90;99.90;;;;;;5036340;28;19924;-79
2022/11/14 09:41:40;;;;;;;;;;;9.00;99.90;;;;;;5037150;28;19916;-78
2022/11/14 09:44:26;;;;;;;;;;;9.00;99.90;;;;;;5036315;28;19913;-79
2022/11/14 09:47:01;;;;;;;;;;;9.10;99.90;;;;;;5037615;28;19909;-79
2022/11/14 09:49:36;;;;;;;;;;;9.20;99.90;;;;;;5037349;28;20342;-77
2022/11/14 09:52:08;;;;;;;;;;;9.10;99.90;;;;;;5036709;28;19909;-79
2022/11/14 09:54:39;;;;;;;;;;;9.10;99.90;;;;;;5035662;28;19910;-78
2022/11/14 09:57:12;;;;;;;;;;;9.20;99.90;;;;;;5035901;28;19909;-78
2022/11/14 09:59:37;;;;;;;;;;;9.20;99.90;;;;;;5037625;28;19932;-78
2022/11/14 10:02:21;;;;;;;;;;;9.30;99.90;;;;;;5036529;28;19913;-78
2022/11/14 10:05:02;;;;;;;;;;;9.50;99.90;;;;;;5035092;28;20278;-78
2022/11/14 10:07:31;;;;;;;;;;;9.60;99.90;;;;;;5034731;28;19909;-78
2022/11/14 10:10:05;;;;;;;;;;;9.70;99.90;;;;;;5037050;28;19917;-79
2022/11/14 10:12:40;;;;;;;;;;;9.80;99.90;;;;;;5034375;28;20012;-79
2022/11/14 10:15:11;;;;;;;;;;;9.80;99.90;;;;;;5036198;28;19916;-78
2022/11/14 10:17:39;;;;;;;;;;;9.90;99.90;;;;;;5036070;28;19909;-78
2022/11/14 10:20:11;;;;;;;;;;;9.90;99.90;;;;;;5034979;28;19909;-78
2022/11/14 10:22:55;;;;;;;;;;;9.90;99.90;;;;;;5034990;28;19912;-78
2022/11/14 10:25:33;;;;;;;;;;;10.00;99.90;;;;;;5034408;28;19909;-78
2022/11/14 10:27:58;;;;;;;;;;;9.90;99.90;;;;;;5035000;28;20379;-79
2022/11/14 10:30:28;;;;;;;;;;;9.90;99.90;;;;;;5036510;28;19916;-79
2022/11/14 10:33:12;;;;;;;;;;;10.00;99.90;;;;;;5032626;28;19925;-80
2022/11/14 10:35:41;;;;;;;;;;;9.90;99.90;;;;;;5035476;28;19913;-78
2022/11/14 10:38:29;;;;;;;;;;;9.70;99.90;;;;;;5036271;28;19909;-79
2022/11/14 10:40:59;;;;;;;;;;;9.80;99.90;;;;;;5036636;28;19913;-79
2022/11/14 10:43:28;;;;;;;;;;;9.90;99.90;;;;;;5036339;28;19913;-78
2022/11/14 10:46:09;;;;;;;;;;;10.00;99.90;;;;;;5035636;28;19916;-78
2022/11/14 10:48:37;;;;;;;;;;;10.00;99.90;;;;;;5036867;28;19920;-79
2022/11/14 10:51:26;;;;;;;;;;;10.10;99.90;;;;;;5036837;28;20382;-78
2022/11/14 10:54:10;;;;;;;;;;;10.20;99.90;;;;;;5048773;28;19909;-80
2022/11/14 10:56:52;;;;;;;;;;;10.00;99.90;;;;;;5036846;28;19928;-79
2022/11/14 10:59:18;;;;;;;;;;;9.90;99.90;;;;;;5035362;28;19916;-80
2022/11/14 11:01:54;;;;;;;;;;;9.80;99.90;;;;;;5035956;28;19913;-80
2022/11/14 11:04:26;;;;;;;;;;;9.80;99.90;;;;;;5035118;28;20000;-78
2022/11/14 11:06:53;;;;;;;;;;;9.80;99.90;;;;;;5034945;28;19909;-79
2022/11/14 11:12:15;;;;;;;;;;;10.10;99.90;;;;;;5036134;28;19931;-79
2022/11/14 11:14:40;;;;;;;;;;;10.20;99.90;;;;;;5034903;28;20337;-78
2022/11/14 11:17:18;;;;;;;;;;;10.30;99.90;;;;;;5036357;28;19956;-78
2022/11/14 11:19:46;;;;;;;;;;;10.30;99.90;;;;;;5035087;28;19909;-78
2022/11/14 11:22:35;;;;;;;;;;;10.40;99.90;;;;;;5034493;28;19913;-79
2022/11/14 11:25:00;;;;;;;;;;;10.50;99.90;;;;;;5035688;28;19996;-79
2022/11/14 11:27:27;;;;;;;;;;;10.60;99.90;;;;;;5037299;28;20378;-79
2022/11/14 11:30:02;;;;;;;;;;;10.70;99.90;;;;;;5035742;28;19980;-79
2022/11/14 11:32:28;;;;;;;;;;;10.70;99.90;;;;;;5032906;28;19913;-80
2022/11/14 11:34:54;;;;;;;;;;;10.70;99.90;;;;;;5034283;28;20310;-80
2022/11/14 11:37:22;;;;;;;;;;;10.60;99.90;;;;;;5033576;28;20000;-80
2022/11/14 11:39:49;;;;;;;;;;;10.50;99.90;;;;;;5032795;28;19913;-79
2022/11/14 11:42:18;;;;;;;;;;;10.40;99.90;;;;;;5032831;28;19913;-80
2022/11/14 11:44:46;;;;;;;;;;;10.30;99.90;;;;;;5032691;28;19999;-81
2022/11/14 11:47:13;;;;;;;;;;;10.30;99.90;;;;;;5032126;28;20287;-80
2022/11/14 11:49:41;;;;;;;;;;;10.30;99.90;;;;;;5032897;28;19913;-80
2022/11/14 11:52:13;;;;;;;;;;;10.30;99.90;;;;;;5033207;28;19909;-81
2022/11/14 11:54:45;;;;;;;;;;;10.40;99.90;;;;;;5034525;28;20378;-81
2022/11/14 11:57:15;;;;;;;;;;;10.50;99.90;;;;;;5058254;23;20007;-80
2022/11/14 11:59:44;;;;;;;;;;;10.50;99.90;;;;;;5074840;28;20379;-80
2022/11/14 12:02:18;;;;;;;;;;;10.50;99.90;;;;;;5074985;28;20010;-80
2022/11/14 12:04:44;;;;;;;;;;;10.50;99.90;;;;;;5089524;28;19916;-80
2022/11/14 12:07:19;;;;;;;;;;;10.60;99.90;;;;;;5073991;28;20301;-80
2022/11/14 12:09:45;;;;;;;;;;;10.70;99.90;;;;;;5072858;28;19909;-80
2022/11/14 12:12:31;;;;;;;;;;;10.70;99.90;;;;;;5074115;28;20281;-80
2022/11/14 12:15:03;;;;;;;;;;;10.70;99.90;;;;;;5073971;28;19908;-80
2022/11/14 12:17:45;;;;;;;;;;;10.80;99.90;;;;;;5072719;28;19915;-81
2022/11/14 12:20:28;;;;;;;;;;;10.90;99.90;;;;;;5074923;28;19908;-80
2022/11/14 12:23:02;;;;;;;;;;;11.00;99.90;;;;;;5072833;28;19912;-81
2022/11/14 12:25:43;;;;;;;;;;;11.10;99.90;;;;;;5073015;28;19909;-80
2022/11/14 12:28:41;;;;;;;;;;;11.20;99.90;;;;;;5073039;28;19962;-81
2022/11/14 12:31:11;;;;;;;;;;;11.20;99.90;;;;;;5072097;28;19908;-80
2022/11/14 12:33:39;;;;;;;;;;;11.30;99.90;;;;;;5072189;28;20003;-80
2022/11/14 12:36:07;;;;;;;;;;;11.90;99.90;;;;;;5078177;28;19908;-79
2022/11/14 12:38:44;;;;;;;;;;;12.90;99.90;;;;;;5078912;28;19909;-79
2022/11/14 12:41:10;;;;;;;;;;;14.60;99.90;;;;;;5077441;28;19916;-79
2022/11/14 12:43:41;;;;;;;;;;;16.60;99.90;;;;;;5077987;28;19909;-79
2022/11/14 12:46:08;;;;;;;;;;;18.00;99.90;;;;;;5077869;28;19923;-79
2022/11/14 12:48:35;;;;;;;;;;;18.20;99.90;;;;;;5077380;28;19908;-79
2022/11/14 12:51:01;;;;;;;;;;;17.30;99.90;;;;;;5078187;28;19951;-79
2022/11/14 12:53:36;;;;;;;;;;;16.20;99.90;;;;;;5077246;28;19908;-79
2022/11/14 12:56:31;;;;;;;;;;;15.40;99.90;;;;;;5078201;28;19908;-81
2022/11/14 12:59:03;;;;;;;;;;;14.30;99.90;;;;;;5078299;28;19923;-81
2022/11/14 13:01:28;;;;;;;;;;;13.40;99.90;;;;;;5078606;28;19917;-79
2022/11/14 13:04:12;;;;;;;;;;;12.50;99.90;;;;;;5079605;28;19912;-80
2022/11/14 13:06:57;;;;;;;;;;;12.10;99.90;;;;;;5078258;28;19908;-79
2022/11/14 13:10:01;;;;;;;;;;;11.80;99.90;;;;;;5079634;28;19908;-79
2022/11/14 13:23:47;;;;;;;;;;;10.90;99.90;;;;;;5079253;28;19932;-79
2022/11/14 13:26:13;;;;;;;;;;;10.80;99.90;;;;;;5078749;28;19908;-79
2022/11/14 13:28:49;;;;;;;;;;;10.70;99.90;;;;;;5077222;28;19908;-79
2022/11/14 13:31:14;;;;;;;;;;;10.70;99.90;;;;;;5079446;28;20007;-79
2022/11/14 13:33:40;;;;;;;;;;;10.70;99.90;;;;;;5076954;28;20088;-80
2022/11/14 13:36:05;;;;;;;;;;;10.60;99.90;;;;;;5078354;28;19915;-80
2022/11/14 13:38:54;;;;;;;;;;;10.60;99.90;;;;;;5076811;28;19915;-78
2022/11/14 13:41:26;;;;;;;;;;;10.60;99.90;;;;;;5064345;28;19912;-78
2022/11/14 13:43:58;;;;;;;;;;;10.70;99.90;;;;;;5079100;28;19909;-78
2022/11/14 13:46:36;;;;;;;;;;;10.80;99.90;;;;;;5075958;28;19951;-78
2022/11/14 13:49:14;;;;;;;;;;;10.80;99.90;;;;;;5075387;28;19930;-78
2022/11/14 13:51:39;;;;;;;;;;;10.80;99.90;;;;;;5076733;28;19936;-78
2022/11/14 13:54:15;;;;;;;;;;;10.80;99.90;;;;;;5076549;28;19909;-79
2022/11/14 13:56:59;;;;;;;;;;;10.80;99.90;;;;;;5076694;28;19912;-78
2022/11/14 13:59:45;;;;;;;;;;;10.90;99.90;;;;;;5075577;28;19909;-79
2022/11/14 14:02:29;;;;;;;;;;;10.90;99.90;;;;;;5075467;28;20468;-78
2022/11/14 14:04:54;;;;;;;;;;;10.90;99.90;;;;;;5075947;28;19912;-78
2022/11/14 14:07:30;;;;;;;;;;;10.80;99.90;;;;;;5075724;28;19938;-78
2022/11/14 14:10:23;;;;;;;;;;;10.70;99.90;;;;;;5076071;28;19912;-78
2022/11/14 14:12:48;;;;;;;;;;;10.70;99.90;;;;;;5076064;28;19908;-78
2022/11/14 14:15:20;;;;;;;;;;;10.70;99.90;;;;;;5075357;28;19912;-79
2022/11/14 14:17:55;;;;;;;;;;;10.80;99.90;;;;;;5075617;28;19909;-78
2022/11/14 14:20:29;;;;;;;;;;;10.80;99.90;;;;;;5058073;28;19916;-79
2022/11/14 14:23:08;;;;;;;;;;;10.80;99.90;;;;;;5077347;28;19948;-79
2022/11/14 14:25:39;;;;;;;;;;;10.90;99.90;;;;;;5071916;28;19915;-79
2022/11/14 14:28:14;;;;;;;;;;;10.90;99.90;;;;;;5083893;28;19930;-79
2022/11/14 14:30:39;;;;;;;;;;;10.80;99.90;;;;;;5073597;28;19919;-80
2022/11/14 14:33:08;;;;;;;;;;;10.80;99.90;;;;;;5082715;28;19908;-78
2022/11/14 14:35:34;;;;;;;;;;;10.80;99.90;;;;;;5095048;28;19915;-80
2022/11/14 14:38:00;;;;;;;;;;;10.80;99.90;;;;;;5095398;28;19915;-78
2022/11/14 14:40:25;;;;;;;;;;;10.70;99.90;;;;;;5090558;28;20296;-78
2022/11/14 14:42:51;;;;;;;;;;;10.60;99.90;;;;;;5094141;28;19912;-78
2022/11/14 14:45:19;;;;;;;;;;;10.60;99.90;;;;;;5094753;28;20317;-79